sensor_id;sensor_type;location;lat;lon;timestamp;temperature;humidity
16594;DHT22;8410;52.532;13.336;2022-07-03T00:00:54;20.90;77.50
16594;DHT22;8410;52.532;13.336;2022-07-03T00:03:22;20.90;76.80
16594;DHT22;8410;52.532;13.336;2022-07-03T00:05:50;20.80;76.60
16594;DHT22;8410;52.532;13.336;2022-07-03T00:08:18;20.80;77.30
16594;DHT22;8410;52.532;13.336;2022-07-03T00:10:46;20.80;76.70
16594;DHT22;8410;52.532;13.336;2022-07-03T00:13:15;20.60;76.80
16594;DHT22;8410;52.532;13.336;2022-07-03T00:15:43;20.50;77.50
16594;DHT22;8410;52.532;13.336;2022-07-03T00:18:11;20.50;77.60
16594;DHT22;8410;52.532;13.336;2022-07-03T00:20:44;20.50;77.40
16594;DHT22;8410;52.532;13.336;2022-07-03T00:23:17;20.50;77.60
16594;DHT22;8410;52.532;13.336;2022-07-03T00:25:46;20.40;78.10
16594;DHT22;8410;52.532;13.336;2022-07-03T00:28:19;20.40;78.00
16594;DHT22;8410;52.532;13.336;2022-07-03T00:30:48;20.40;78.60
16594;DHT22;8410;52.532;13.336;2022-07-03T00:33:18;20.30;78.80
16594;DHT22;8410;52.532;13.336;2022-07-03T00:35:48;20.20;78.80
16594;DHT22;8410;52.532;13.336;2022-07-03T00:38:20;20.10;79.40
16594;DHT22;8410;52.532;13.336;2022-07-03T00:40:49;20.10;79.30
16594;DHT22;8410;52.532;13.336;2022-07-03T00:43:18;20.10;79.50
16594;DHT22;8410;52.532;13.336;2022-07-03T00:45:49;20.00;79.60
16594;DHT22;8410;52.532;13.336;2022-07-03T00:48:19;20.00;80.40
16594;DHT22;8410;52.532;13.336;2022-07-03T00:50:49;19.90;80.60
16594;DHT22;8410;52.532;13.336;2022-07-03T00:53:26;20.00;80.10
16594;DHT22;8410;52.532;13.336;2022-07-03T00:55:56;20.00;80.00
16594;DHT22;8410;52.532;13.336;2022-07-03T00:58:28;19.90;80.40
16594;DHT22;8410;52.532;13.336;2022-07-03T01:00:57;20.00;80.00
16594;DHT22;8410;52.532;13.336;2022-07-03T01:03:27;19.90;80.40
16594;DHT22;8410;52.532;13.336;2022-07-03T01:06:03;19.90;80.70
16594;DHT22;8410;52.532;13.336;2022-07-03T01:08:42;19.90;80.50
16594;DHT22;8410;52.532;13.336;2022-07-03T01:11:21;20.00;81.00
16594;DHT22;8410;52.532;13.336;2022-07-03T01:14:02;19.90;80.80
16594;DHT22;8410;52.532;13.336;2022-07-03T01:16:46;19.80;81.10
16594;DHT22;8410;52.532;13.336;2022-07-03T01:19:35;19.80;81.20
16594;DHT22;8410;52.532;13.336;2022-07-03T01:22:34;19.90;80.80
16594;DHT22;8410;52.532;13.336;2022-07-03T01:25:17;19.70;81.20
16594;DHT22;8410;52.532;13.336;2022-07-03T01:27:57;19.70;81.60
16594;DHT22;8410;52.532;13.336;2022-07-03T01:30:32;19.60;81.70
16594;DHT22;8410;52.532;13.336;2022-07-03T01:33:03;19.70;81.60
16594;DHT22;8410;52.532;13.336;2022-07-03T01:35:36;19.60;82.10
16594;DHT22;8410;52.532;13.336;2022-07-03T01:38:08;19.50;82.20
16594;DHT22;8410;52.532;13.336;2022-07-03T01:40:39;19.60;82.20
16594;DHT22;8410;52.532;13.336;2022-07-03T01:43:12;19.50;82.60
16594;DHT22;8410;52.532;13.336;2022-07-03T01:45:43;19.30;83.30
16594;DHT22;8410;52.532;13.336;2022-07-03T01:48:15;19.30;83.60
16594;DHT22;8410;52.532;13.336;2022-07-03T01:50:46;19.30;83.20
16594;DHT22;8410;52.532;13.336;2022-07-03T01:53:17;19.30;83.40
16594;DHT22;8410;52.532;13.336;2022-07-03T01:55:46;19.20;83.80
16594;DHT22;8410;52.532;13.336;2022-07-03T01:58:17;19.20;84.90
16594;DHT22;8410;52.532;13.336;2022-07-03T02:00:47;19.20;84.30
16594;DHT22;8410;52.532;13.336;2022-07-03T02:03:24;19.20;84.60
16594;DHT22;8410;52.532;13.336;2022-07-03T02:06:01;19.20;84.70
16594;DHT22;8410;52.532;13.336;2022-07-03T02:08:44;19.20;84.80
16594;DHT22;8410;52.532;13.336;2022-07-03T02:11:39;19.10;84.70
16594;DHT22;8410;52.532;13.336;2022-07-03T02:14:12;19.10;85.00
16594;DHT22;8410;52.532;13.336;2022-07-03T02:16:57;19.10;85.20
16594;DHT22;8410;52.532;13.336;2022-07-03T02:19:39;19.00;85.10
16594;DHT22;8410;52.532;13.336;2022-07-03T02:22:12;19.20;85.40
16594;DHT22;8410;52.532;13.336;2022-07-03T02:24:42;19.20;85.70
16594;DHT22;8410;52.532;13.336;2022-07-03T02:27:15;19.10;85.30
16594;DHT22;8410;52.532;13.336;2022-07-03T02:29:50;18.90;85.90
16594;DHT22;8410;52.532;13.336;2022-07-03T02:32:25;18.70;86.70
16594;DHT22;8410;52.532;13.336;2022-07-03T02:35:01;18.70;87.40
16594;DHT22;8410;52.532;13.336;2022-07-03T02:37:37;18.70;87.00
16594;DHT22;8410;52.532;13.336;2022-07-03T02:40:16;18.50;87.90
16594;DHT22;8410;52.532;13.336;2022-07-03T02:42:58;18.60;87.40
16594;DHT22;8410;52.532;13.336;2022-07-03T02:45:40;18.50;88.10
16594;DHT22;8410;52.532;13.336;2022-07-03T02:48:21;18.70;88.00
16594;DHT22;8410;52.532;13.336;2022-07-03T02:50:59;18.60;87.90
16594;DHT22;8410;52.532;13.336;2022-07-03T02:53:38;18.60;88.50
16594;DHT22;8410;52.532;13.336;2022-07-03T02:56:15;18.70;88.10
16594;DHT22;8410;52.532;13.336;2022-07-03T02:58:58;18.60;88.10
16594;DHT22;8410;52.532;13.336;2022-07-03T03:01:41;18.60;89.00
16594;DHT22;8410;52.532;13.336;2022-07-03T03:04:21;18.60;88.30
16594;DHT22;8410;52.532;13.336;2022-07-03T03:06:56;18.60;88.40
16594;DHT22;8410;52.532;13.336;2022-07-03T03:09:34;18.60;88.60
16594;DHT22;8410;52.532;13.336;2022-07-03T03:12:09;18.60;88.30
16594;DHT22;8410;52.532;13.336;2022-07-03T03:14:39;18.60;89.10
16594;DHT22;8410;52.532;13.336;2022-07-03T03:17:16;18.80;88.80
16594;DHT22;8410;52.532;13.336;2022-07-03T03:19:46;18.80;88.30
16594;DHT22;8410;52.532;13.336;2022-07-03T03:22:40;18.70;88.60
16594;DHT22;8410;52.532;13.336;2022-07-03T03:25:22;18.70;88.60
16594;DHT22;8410;52.532;13.336;2022-07-03T03:27:52;18.70;89.00
16594;DHT22;8410;52.532;13.336;2022-07-03T03:30:20;18.80;89.10
16594;DHT22;8410;52.532;13.336;2022-07-03T03:32:49;18.80;88.90
16594;DHT22;8410;52.532;13.336;2022-07-03T03:35:17;18.90;89.10
16594;DHT22;8410;52.532;13.336;2022-07-03T03:37:45;18.80;89.40
16594;DHT22;8410;52.532;13.336;2022-07-03T03:40:15;18.80;89.50
16594;DHT22;8410;52.532;13.336;2022-07-03T03:42:44;18.90;88.80
16594;DHT22;8410;52.532;13.336;2022-07-03T03:45:12;18.90;89.50
16594;DHT22;8410;52.532;13.336;2022-07-03T03:47:40;19.10;89.40
16594;DHT22;8410;52.532;13.336;2022-07-03T03:50:10;19.60;88.20
16594;DHT22;8410;52.532;13.336;2022-07-03T03:52:38;20.20;85.80
16594;DHT22;8410;52.532;13.336;2022-07-03T03:55:06;20.60;84.50
16594;DHT22;8410;52.532;13.336;2022-07-03T03:57:36;21.00;83.50
16594;DHT22;8410;52.532;13.336;2022-07-03T04:00:05;22.10;80.30
16594;DHT22;8410;52.532;13.336;2022-07-03T04:02:34;22.80;78.50
16594;DHT22;8410;52.532;13.336;2022-07-03T04:05:02;22.80;78.50
16594;DHT22;8410;52.532;13.336;2022-07-03T04:07:32;23.00;76.90
16594;DHT22;8410;52.532;13.336;2022-07-03T04:09:59;22.80;78.60
16594;DHT22;8410;52.532;13.336;2022-07-03T04:12:27;22.70;78.90
16594;DHT22;8410;52.532;13.336;2022-07-03T04:14:57;22.40;79.50
16594;DHT22;8410;52.532;13.336;2022-07-03T04:17:26;22.80;80.90
16594;DHT22;8410;52.532;13.336;2022-07-03T04:19:54;23.20;77.90
16594;DHT22;8410;52.532;13.336;2022-07-03T04:22:22;23.90;76.20
16594;DHT22;8410;52.532;13.336;2022-07-03T04:24:51;24.80;73.50
16594;DHT22;8410;52.532;13.336;2022-07-03T04:27:19;25.50;72.80
16594;DHT22;8410;52.532;13.336;2022-07-03T04:30:07;25.80;70.40
16594;DHT22;8410;52.532;13.336;2022-07-03T04:32:37;25.90;69.50
16594;DHT22;8410;52.532;13.336;2022-07-03T04:35:06;25.80;70.00
16594;DHT22;8410;52.532;13.336;2022-07-03T04:37:35;25.80;71.90
16594;DHT22;8410;52.532;13.336;2022-07-03T04:40:05;26.10;68.70
16594;DHT22;8410;52.532;13.336;2022-07-03T04:42:34;26.00;71.70
16594;DHT22;8410;52.532;13.336;2022-07-03T04:45:07;26.00;69.40
16594;DHT22;8410;52.532;13.336;2022-07-03T04:47:35;25.90;71.20
16594;DHT22;8410;52.532;13.336;2022-07-03T04:50:03;25.50;69.70
16594;DHT22;8410;52.532;13.336;2022-07-03T04:52:32;25.10;71.40
16594;DHT22;8410;52.532;13.336;2022-07-03T04:54:59;25.10;72.20
16594;DHT22;8410;52.532;13.336;2022-07-03T04:57:30;25.10;70.30
16594;DHT22;8410;52.532;13.336;2022-07-03T04:59:58;24.90;73.30
16594;DHT22;8410;52.532;13.336;2022-07-03T05:02:26;24.00;73.70
16594;DHT22;8410;52.532;13.336;2022-07-03T05:04:54;23.90;75.60
16594;DHT22;8410;52.532;13.336;2022-07-03T05:07:22;24.20;75.80
16594;DHT22;8410;52.532;13.336;2022-07-03T05:09:49;24.60;74.90
16594;DHT22;8410;52.532;13.336;2022-07-03T05:12:17;24.10;73.80
16594;DHT22;8410;52.532;13.336;2022-07-03T05:14:46;23.80;75.60
16594;DHT22;8410;52.532;13.336;2022-07-03T05:17:16;24.00;75.80
16594;DHT22;8410;52.532;13.336;2022-07-03T05:19:45;23.90;74.40
16594;DHT22;8410;52.532;13.336;2022-07-03T05:22:13;24.10;76.00
16594;DHT22;8410;52.532;13.336;2022-07-03T05:24:43;23.90;76.70
16594;DHT22;8410;52.532;13.336;2022-07-03T05:27:11;23.70;76.90
16594;DHT22;8410;52.532;13.336;2022-07-03T05:29:39;23.90;75.40
16594;DHT22;8410;52.532;13.336;2022-07-03T05:32:09;24.00;76.40
16594;DHT22;8410;52.532;13.336;2022-07-03T05:34:37;23.90;75.30
16594;DHT22;8410;52.532;13.336;2022-07-03T05:37:04;24.00;76.40
16594;DHT22;8410;52.532;13.336;2022-07-03T05:39:32;24.30;73.70
16594;DHT22;8410;52.532;13.336;2022-07-03T05:42:00;23.90;73.80
16594;DHT22;8410;52.532;13.336;2022-07-03T05:44:28;24.50;74.70
16594;DHT22;8410;52.532;13.336;2022-07-03T05:46:56;24.30;73.40
16594;DHT22;8410;52.532;13.336;2022-07-03T05:49:25;23.80;75.30
16594;DHT22;8410;52.532;13.336;2022-07-03T05:51:53;24.10;75.80
16594;DHT22;8410;52.532;13.336;2022-07-03T05:54:21;24.00;75.30
16594;DHT22;8410;52.532;13.336;2022-07-03T05:56:49;23.50;75.20
16594;DHT22;8410;52.532;13.336;2022-07-03T05:59:17;23.70;77.00
16594;DHT22;8410;52.532;13.336;2022-07-03T06:01:46;23.90;76.70
16594;DHT22;8410;52.532;13.336;2022-07-03T06:04:13;24.00;74.80
16594;DHT22;8410;52.532;13.336;2022-07-03T06:06:43;23.50;76.50
16594;DHT22;8410;52.532;13.336;2022-07-03T06:09:11;23.20;75.60
16594;DHT22;8410;52.532;13.336;2022-07-03T06:11:42;23.30;75.20
16594;DHT22;8410;52.532;13.336;2022-07-03T06:14:10;23.20;76.10
16594;DHT22;8410;52.532;13.336;2022-07-03T06:16:38;23.40;75.40
16594;DHT22;8410;52.532;13.336;2022-07-03T06:19:07;23.40;76.30
16594;DHT22;8410;52.532;13.336;2022-07-03T06:21:35;23.40;75.80
16594;DHT22;8410;52.532;13.336;2022-07-03T06:24:05;23.30;76.20
16594;DHT22;8410;52.532;13.336;2022-07-03T06:26:33;23.50;75.30
16594;DHT22;8410;52.532;13.336;2022-07-03T06:29:01;23.70;75.70
16594;DHT22;8410;52.532;13.336;2022-07-03T06:31:29;23.70;74.60
16594;DHT22;8410;52.532;13.336;2022-07-03T06:33:58;23.70;74.50
16594;DHT22;8410;52.532;13.336;2022-07-03T06:36:26;23.60;75.20
16594;DHT22;8410;52.532;13.336;2022-07-03T06:38:53;23.40;76.40
16594;DHT22;8410;52.532;13.336;2022-07-03T06:41:23;23.80;75.90
16594;DHT22;8410;52.532;13.336;2022-07-03T06:43:50;23.90;75.30
16594;DHT22;8410;52.532;13.336;2022-07-03T06:46:18;23.70;73.70
16594;DHT22;8410;52.532;13.336;2022-07-03T06:48:46;23.80;75.20
16594;DHT22;8410;52.532;13.336;2022-07-03T06:51:14;24.10;75.10
16594;DHT22;8410;52.532;13.336;2022-07-03T06:53:43;24.40;74.30
16594;DHT22;8410;52.532;13.336;2022-07-03T06:56:10;24.50;73.20
16594;DHT22;8410;52.532;13.336;2022-07-03T06:58:40;24.40;72.30
16594;DHT22;8410;52.532;13.336;2022-07-03T07:01:07;24.10;72.50
16594;DHT22;8410;52.532;13.336;2022-07-03T07:03:35;24.10;74.00
16594;DHT22;8410;52.532;13.336;2022-07-03T07:06:03;23.90;73.80
16594;DHT22;8410;52.532;13.336;2022-07-03T07:08:31;23.90;73.70
16594;DHT22;8410;52.532;13.336;2022-07-03T07:10:59;24.00;73.30
16594;DHT22;8410;52.532;13.336;2022-07-03T07:13:27;24.10;73.80
16594;DHT22;8410;52.532;13.336;2022-07-03T07:15:56;24.20;73.30
16594;DHT22;8410;52.532;13.336;2022-07-03T07:18:24;24.30;73.00
16594;DHT22;8410;52.532;13.336;2022-07-03T07:20:52;24.40;73.30
16594;DHT22;8410;52.532;13.336;2022-07-03T07:23:20;24.30;72.60
16594;DHT22;8410;52.532;13.336;2022-07-03T07:25:48;24.30;73.30
16594;DHT22;8410;52.532;13.336;2022-07-03T07:28:15;24.40;73.80
16594;DHT22;8410;52.532;13.336;2022-07-03T07:30:43;24.30;72.20
16594;DHT22;8410;52.532;13.336;2022-07-03T07:33:13;24.40;73.50
16594;DHT22;8410;52.532;13.336;2022-07-03T07:35:41;24.60;74.00
16594;DHT22;8410;52.532;13.336;2022-07-03T07:38:08;24.60;72.60
16594;DHT22;8410;52.532;13.336;2022-07-03T07:40:37;24.70;72.60
16594;DHT22;8410;52.532;13.336;2022-07-03T07:43:05;24.60;72.90
16594;DHT22;8410;52.532;13.336;2022-07-03T07:45:34;24.70;73.00
16594;DHT22;8410;52.532;13.336;2022-07-03T07:48:02;24.80;72.30
16594;DHT22;8410;52.532;13.336;2022-07-03T07:50:32;24.90;72.60
16594;DHT22;8410;52.532;13.336;2022-07-03T07:53:00;24.80;71.00
16594;DHT22;8410;52.532;13.336;2022-07-03T07:55:28;24.80;71.00
16594;DHT22;8410;52.532;13.336;2022-07-03T07:57:55;24.90;71.30
16594;DHT22;8410;52.532;13.336;2022-07-03T08:00:23;25.00;71.90
16594;DHT22;8410;52.532;13.336;2022-07-03T08:02:51;25.00;70.80
16594;DHT22;8410;52.532;13.336;2022-07-03T08:05:38;25.20;71.30
16594;DHT22;8410;52.532;13.336;2022-07-03T08:08:07;25.30;71.20
16594;DHT22;8410;52.532;13.336;2022-07-03T08:10:38;25.30;70.60
16594;DHT22;8410;52.532;13.336;2022-07-03T08:13:09;25.30;70.10
16594;DHT22;8410;52.532;13.336;2022-07-03T08:15:38;25.30;71.30
16594;DHT22;8410;52.532;13.336;2022-07-03T08:18:06;25.30;70.30
16594;DHT22;8410;52.532;13.336;2022-07-03T08:20:35;25.30;69.50
16594;DHT22;8410;52.532;13.336;2022-07-03T08:23:05;25.40;70.00
16594;DHT22;8410;52.532;13.336;2022-07-03T08:28:01;25.50;63.30
16594;DHT22;8410;52.532;13.336;2022-07-03T08:30:29;25.60;69.50
16594;DHT22;8410;52.532;13.336;2022-07-03T08:32:58;25.50;69.20
16594;DHT22;8410;52.532;13.336;2022-07-03T08:35:26;25.60;68.40
16594;DHT22;8410;52.532;13.336;2022-07-03T08:37:55;25.70;68.90
16594;DHT22;8410;52.532;13.336;2022-07-03T08:40:25;25.70;68.60
16594;DHT22;8410;52.532;13.336;2022-07-03T08:42:54;25.70;68.80
16594;DHT22;8410;52.532;13.336;2022-07-03T08:45:24;25.80;69.30
16594;DHT22;8410;52.532;13.336;2022-07-03T08:47:54;25.80;68.80
16594;DHT22;8410;52.532;13.336;2022-07-03T08:50:24;25.80;67.90
16594;DHT22;8410;52.532;13.336;2022-07-03T08:52:53;25.70;67.60
16594;DHT22;8410;52.532;13.336;2022-07-03T08:55:20;25.70;67.30
16594;DHT22;8410;52.532;13.336;2022-07-03T08:57:50;25.70;67.70
16594;DHT22;8410;52.532;13.336;2022-07-03T09:00:19;25.90;67.90
16594;DHT22;8410;52.532;13.336;2022-07-03T09:02:48;25.90;67.80
16594;DHT22;8410;52.532;13.336;2022-07-03T09:05:17;25.90;68.00
16594;DHT22;8410;52.532;13.336;2022-07-03T09:07:46;25.90;67.50
16594;DHT22;8410;52.532;13.336;2022-07-03T09:10:17;25.90;67.80
16594;DHT22;8410;52.532;13.336;2022-07-03T09:12:47;25.80;66.80
16594;DHT22;8410;52.532;13.336;2022-07-03T09:15:17;26.00;67.50
16594;DHT22;8410;52.532;13.336;2022-07-03T09:17:59;26.00;67.10
16594;DHT22;8410;52.532;13.336;2022-07-03T09:20:30;26.10;67.90
16594;DHT22;8410;52.532;13.336;2022-07-03T09:23:16;26.10;66.90
16594;DHT22;8410;52.532;13.336;2022-07-03T09:25:54;26.20;66.30
16594;DHT22;8410;52.532;13.336;2022-07-03T09:28:24;26.20;67.30
16594;DHT22;8410;52.532;13.336;2022-07-03T09:31:10;26.30;66.90
16594;DHT22;8410;52.532;13.336;2022-07-03T09:34:03;26.20;66.20
16594;DHT22;8410;52.532;13.336;2022-07-03T09:36:41;26.20;65.70
16594;DHT22;8410;52.532;13.336;2022-07-03T09:39:16;26.20;66.10
16594;DHT22;8410;52.532;13.336;2022-07-03T09:41:54;26.40;65.90
16594;DHT22;8410;52.532;13.336;2022-07-03T09:44:34;26.40;65.30
16594;DHT22;8410;52.532;13.336;2022-07-03T09:47:13;26.50;64.80
16594;DHT22;8410;52.532;13.336;2022-07-03T09:49:50;26.50;64.90
16594;DHT22;8410;52.532;13.336;2022-07-03T09:52:33;26.50;65.10
16594;DHT22;8410;52.532;13.336;2022-07-03T09:55:13;26.50;65.10
16594;DHT22;8410;52.532;13.336;2022-07-03T09:57:45;26.40;64.40
16594;DHT22;8410;52.532;13.336;2022-07-03T10:00:27;26.40;64.90
16594;DHT22;8410;52.532;13.336;2022-07-03T10:03:02;26.50;65.10
16594;DHT22;8410;52.532;13.336;2022-07-03T10:05:33;26.60;64.60
16594;DHT22;8410;52.532;13.336;2022-07-03T10:08:04;26.70;64.60
16594;DHT22;8410;52.532;13.336;2022-07-03T10:10:34;26.60;64.80
16594;DHT22;8410;52.532;13.336;2022-07-03T10:13:04;26.60;65.00
16594;DHT22;8410;52.532;13.336;2022-07-03T10:15:34;26.70;64.50
16594;DHT22;8410;52.532;13.336;2022-07-03T10:18:07;26.80;64.80
16594;DHT22;8410;52.532;13.336;2022-07-03T10:20:38;26.80;64.40
16594;DHT22;8410;52.532;13.336;2022-07-03T10:23:09;26.90;63.70
16594;DHT22;8410;52.532;13.336;2022-07-03T10:25:40;26.80;64.80
16594;DHT22;8410;52.532;13.336;2022-07-03T10:28:11;26.80;64.90
16594;DHT22;8410;52.532;13.336;2022-07-03T10:30:43;26.80;65.30
16594;DHT22;8410;52.532;13.336;2022-07-03T10:33:13;26.80;65.20
16594;DHT22;8410;52.532;13.336;2022-07-03T10:35:43;26.90;65.00
16594;DHT22;8410;52.532;13.336;2022-07-03T10:38:34;26.80;64.60
16594;DHT22;8410;52.532;13.336;2022-07-03T10:41:11;26.80;64.10
16594;DHT22;8410;52.532;13.336;2022-07-03T10:44:01;26.80;63.20
16594;DHT22;8410;52.532;13.336;2022-07-03T10:46:47;26.80;64.00
16594;DHT22;8410;52.532;13.336;2022-07-03T10:49:21;27.00;64.20
16594;DHT22;8410;52.532;13.336;2022-07-03T10:51:55;27.00;64.40
16594;DHT22;8410;52.532;13.336;2022-07-03T10:54:25;27.20;64.20
16594;DHT22;8410;52.532;13.336;2022-07-03T10:57:05;27.20;63.80
16594;DHT22;8410;52.532;13.336;2022-07-03T10:59:57;27.20;64.40
16594;DHT22;8410;52.532;13.336;2022-07-03T11:02:31;27.20;64.40
16594;DHT22;8410;52.532;13.336;2022-07-03T11:05:13;27.30;64.30
16594;DHT22;8410;52.532;13.336;2022-07-03T11:08:13;27.40;64.90
16594;DHT22;8410;52.532;13.336;2022-07-03T11:10:43;27.40;64.60
16594;DHT22;8410;52.532;13.336;2022-07-03T11:13:13;27.50;64.20
16594;DHT22;8410;52.532;13.336;2022-07-03T11:15:45;27.50;62.80
16594;DHT22;8410;52.532;13.336;2022-07-03T11:18:19;27.60;62.70
16594;DHT22;8410;52.532;13.336;2022-07-03T11:27:18;27.40;62.50
16594;DHT22;8410;52.532;13.336;2022-07-03T11:29:53;27.30;62.00
16594;DHT22;8410;52.532;13.336;2022-07-03T11:32:43;27.30;62.40
16594;DHT22;8410;52.532;13.336;2022-07-03T11:35:43;27.40;62.40
16594;DHT22;8410;52.532;13.336;2022-07-03T11:38:23;27.60;62.70
16594;DHT22;8410;52.532;13.336;2022-07-03T11:40:55;27.30;60.70
16594;DHT22;8410;52.532;13.336;2022-07-03T11:43:25;26.90;62.10
16594;DHT22;8410;52.532;13.336;2022-07-03T11:45:53;27.00;62.40
16594;DHT22;8410;52.532;13.336;2022-07-03T11:48:23;27.30;62.30
16594;DHT22;8410;52.532;13.336;2022-07-03T11:50:58;27.40;62.90
16594;DHT22;8410;52.532;13.336;2022-07-03T11:53:30;27.60;63.60
16594;DHT22;8410;52.532;13.336;2022-07-03T11:56:02;27.50;63.20
16594;DHT22;8410;52.532;13.336;2022-07-03T11:58:45;27.20;63.30
16594;DHT22;8410;52.532;13.336;2022-07-03T12:01:31;27.00;62.30
16594;DHT22;8410;52.532;13.336;2022-07-03T12:04:06;26.60;62.40
16594;DHT22;8410;52.532;13.336;2022-07-03T12:06:37;26.70;61.80
16594;DHT22;8410;52.532;13.336;2022-07-03T12:09:16;26.80;62.50
16594;DHT22;8410;52.532;13.336;2022-07-03T12:11:55;26.90;63.50
16594;DHT22;8410;52.532;13.336;2022-07-03T12:14:49;27.10;63.60
16594;DHT22;8410;52.532;13.336;2022-07-03T12:17:19;27.10;62.00
16594;DHT22;8410;52.532;13.336;2022-07-03T12:19:49;27.00;62.70
16594;DHT22;8410;52.532;13.336;2022-07-03T12:22:24;26.90;62.70
16594;DHT22;8410;52.532;13.336;2022-07-03T12:24:59;27.00;61.30
16594;DHT22;8410;52.532;13.336;2022-07-03T12:27:28;27.30;61.00
16594;DHT22;8410;52.532;13.336;2022-07-03T12:29:57;27.50;62.00
16594;DHT22;8410;52.532;13.336;2022-07-03T12:32:26;27.70;62.40
16594;DHT22;8410;52.532;13.336;2022-07-03T12:34:55;27.80;62.40
16594;DHT22;8410;52.532;13.336;2022-07-03T12:37:31;28.00;62.00
16594;DHT22;8410;52.532;13.336;2022-07-03T12:40:03;28.00;61.40
16594;DHT22;8410;52.532;13.336;2022-07-03T12:42:42;27.90;61.00
16594;DHT22;8410;52.532;13.336;2022-07-03T12:45:13;28.00;60.70
16594;DHT22;8410;52.532;13.336;2022-07-03T12:47:43;28.00;60.80
16594;DHT22;8410;52.532;13.336;2022-07-03T12:50:11;28.00;61.10
16594;DHT22;8410;52.532;13.336;2022-07-03T12:52:51;27.90;61.40
16594;DHT22;8410;52.532;13.336;2022-07-03T12:55:26;27.90;61.70
16594;DHT22;8410;52.532;13.336;2022-07-03T12:58:10;27.90;61.30
16594;DHT22;8410;52.532;13.336;2022-07-03T13:00:56;28.00;60.60
16594;DHT22;8410;52.532;13.336;2022-07-03T13:03:28;27.60;59.40
16594;DHT22;8410;52.532;13.336;2022-07-03T13:06:12;27.50;60.50
16594;DHT22;8410;52.532;13.336;2022-07-03T13:08:49;27.80;60.40
16594;DHT22;8410;52.532;13.336;2022-07-03T13:11:29;28.00;60.20
16594;DHT22;8410;52.532;13.336;2022-07-03T13:14:09;28.10;60.20
16594;DHT22;8410;52.532;13.336;2022-07-03T13:16:42;28.10;60.40
16594;DHT22;8410;52.532;13.336;2022-07-03T13:19:12;28.10;60.00
16594;DHT22;8410;52.532;13.336;2022-07-03T13:21:41;28.20;58.90
16594;DHT22;8410;52.532;13.336;2022-07-03T13:24:11;28.10;58.80
16594;DHT22;8410;52.532;13.336;2022-07-03T13:26:42;28.00;58.80
16594;DHT22;8410;52.532;13.336;2022-07-03T13:29:15;28.00;59.40
16594;DHT22;8410;52.532;13.336;2022-07-03T13:31:43;28.00;58.60
16594;DHT22;8410;52.532;13.336;2022-07-03T13:34:11;28.00;58.90
16594;DHT22;8410;52.532;13.336;2022-07-03T13:36:39;28.00;58.80
16594;DHT22;8410;52.532;13.336;2022-07-03T13:39:07;28.00;58.90
16594;DHT22;8410;52.532;13.336;2022-07-03T13:41:36;28.20;59.00
16594;DHT22;8410;52.532;13.336;2022-07-03T13:44:05;28.30;58.60
16594;DHT22;8410;52.532;13.336;2022-07-03T13:46:33;28.40;59.30
16594;DHT22;8410;52.532;13.336;2022-07-03T13:49:01;28.40;58.40
16594;DHT22;8410;52.532;13.336;2022-07-03T13:51:29;28.40;58.80
16594;DHT22;8410;52.532;13.336;2022-07-03T13:53:57;28.50;57.90
16594;DHT22;8410;52.532;13.336;2022-07-03T13:56:25;28.40;58.30
16594;DHT22;8410;52.532;13.336;2022-07-03T13:58:53;28.30;58.50
16594;DHT22;8410;52.532;13.336;2022-07-03T14:01:22;28.30;58.50
16594;DHT22;8410;52.532;13.336;2022-07-03T14:03:50;28.30;58.80
16594;DHT22;8410;52.532;13.336;2022-07-03T14:06:18;28.10;57.80
16594;DHT22;8410;52.532;13.336;2022-07-03T14:08:46;27.90;58.40
16594;DHT22;8410;52.532;13.336;2022-07-03T14:11:14;28.00;58.40
16594;DHT22;8410;52.532;13.336;2022-07-03T14:13:42;28.00;59.00
16594;DHT22;8410;52.532;13.336;2022-07-03T14:16:11;27.90;57.60
16594;DHT22;8410;52.532;13.336;2022-07-03T14:18:40;27.70;57.90
16594;DHT22;8410;52.532;13.336;2022-07-03T14:21:08;27.60;58.80
16594;DHT22;8410;52.532;13.336;2022-07-03T14:23:36;27.60;58.40
16594;DHT22;8410;52.532;13.336;2022-07-03T14:26:04;27.60;58.40
16594;DHT22;8410;52.532;13.336;2022-07-03T14:28:32;27.70;58.50
16594;DHT22;8410;52.532;13.336;2022-07-03T14:31:18;27.80;59.20
16594;DHT22;8410;52.532;13.336;2022-07-03T14:34:05;27.80;58.80
16594;DHT22;8410;52.532;13.336;2022-07-03T14:36:33;27.90;58.90
16594;DHT22;8410;52.532;13.336;2022-07-03T14:39:10;28.00;58.00
16594;DHT22;8410;52.532;13.336;2022-07-03T14:41:40;28.10;57.30
16594;DHT22;8410;52.532;13.336;2022-07-03T14:44:08;28.30;57.40
16594;DHT22;8410;52.532;13.336;2022-07-03T14:46:36;28.40;57.00
16594;DHT22;8410;52.532;13.336;2022-07-03T14:49:05;28.30;57.50
16594;DHT22;8410;52.532;13.336;2022-07-03T14:51:33;28.20;57.50
16594;DHT22;8410;52.532;13.336;2022-07-03T14:54:01;28.20;57.60
16594;DHT22;8410;52.532;13.336;2022-07-03T14:56:29;28.10;57.60
16594;DHT22;8410;52.532;13.336;2022-07-03T14:59:02;28.20;58.10
16594;DHT22;8410;52.532;13.336;2022-07-03T15:01:36;28.20;57.40
16594;DHT22;8410;52.532;13.336;2022-07-03T15:04:17;28.10;57.20
16594;DHT22;8410;52.532;13.336;2022-07-03T15:06:48;27.90;57.70
16594;DHT22;8410;52.532;13.336;2022-07-03T15:09:19;28.00;57.40
16594;DHT22;8410;52.532;13.336;2022-07-03T15:11:55;28.00;57.50
16594;DHT22;8410;52.532;13.336;2022-07-03T15:14:42;28.20;57.50
16594;DHT22;8410;52.532;13.336;2022-07-03T15:17:12;28.20;56.90
16594;DHT22;8410;52.532;13.336;2022-07-03T15:19:43;28.30;57.50
16594;DHT22;8410;52.532;13.336;2022-07-03T15:22:16;28.30;57.40
16594;DHT22;8410;52.532;13.336;2022-07-03T15:24:46;28.30;57.30
16594;DHT22;8410;52.532;13.336;2022-07-03T15:27:19;28.30;57.30
16594;DHT22;8410;52.532;13.336;2022-07-03T15:29:48;28.20;57.20
16594;DHT22;8410;52.532;13.336;2022-07-03T15:32:17;28.40;56.70
16594;DHT22;8410;52.532;13.336;2022-07-03T15:34:47;28.50;57.60
16594;DHT22;8410;52.532;13.336;2022-07-03T15:37:24;28.50;56.60
16594;DHT22;8410;52.532;13.336;2022-07-03T15:40:05;28.50;56.50
16594;DHT22;8410;52.532;13.336;2022-07-03T15:43:02;28.40;56.50
16594;DHT22;8410;52.532;13.336;2022-07-03T15:45:44;28.40;56.30
16594;DHT22;8410;52.532;13.336;2022-07-03T15:48:28;28.30;55.50
16594;DHT22;8410;52.532;13.336;2022-07-03T15:51:09;28.20;56.20
16594;DHT22;8410;52.532;13.336;2022-07-03T15:53:49;28.30;56.90
16594;DHT22;8410;52.532;13.336;2022-07-03T15:56:25;28.20;57.30
16594;DHT22;8410;52.532;13.336;2022-07-03T15:59:01;28.20;57.80
16594;DHT22;8410;52.532;13.336;2022-07-03T16:01:34;28.20;57.70
16594;DHT22;8410;52.532;13.336;2022-07-03T16:04:28;28.30;57.70
16594;DHT22;8410;52.532;13.336;2022-07-03T16:07:02;28.40;57.20
16594;DHT22;8410;52.532;13.336;2022-07-03T16:09:32;28.50;56.90
16594;DHT22;8410;52.532;13.336;2022-07-03T16:11:59;28.60;56.40